Time;durP1;ratioP1;P1;durP2;ratioP2;P2;SDS_P1;SDS_P2;PMS_P1;PMS_P2;Temp;Humidity;BMP_temperature;BMP_pressure;BME280_temperature;BME280_humidity;BME280_pressure;Samples;Min_cycle;Max_cycle;Signal;HPM_P1;HPM_P2
2022/12/30 00:00:28;;;;;;;17.20;2.75;;;9.80;99.60;;;;;;5096776;28;20034;-78
2022/12/30 00:02:54;;;;;;;10.93;2.75;;;9.80;99.50;;;;;;5096730;28;20496;-79
2022/12/30 00:05:20;;;;;;;13.55;2.85;;;9.80;99.50;;;;;;5096499;28;20028;-77
2022/12/30 00:07:45;;;;;;;19.55;2.90;;;9.80;99.40;;;;;;5096015;28;20107;-77
2022/12/30 00:10:11;;;;;;;15.73;2.50;;;9.80;99.40;;;;;;5096873;28;20151;-76
2022/12/30 00:35:08;;;;;;;47.50;17.75;;;9.70;99.30;;;;;;5093543;28;20062;-77
2022/12/30 00:37:34;;;;;;;14.52;4.63;;;9.70;99.30;;;;;;5093124;28;20104;-77
2022/12/30 00:40:00;;;;;;;16.15;3.03;;;9.80;99.20;;;;;;5092200;28;20448;-79
2022/12/30 00:45:09;;;;;;;9.40;2.15;;;9.70;99.10;;;;;;5093741;28;20043;-78
2022/12/30 00:47:35;;;;;;;10.02;2.33;;;9.70;99.10;;;;;;5093711;28;20449;-78
2022/12/30 00:58:14;;;;;;;14.88;2.58;;;9.70;98.80;;;;;;5093163;28;20477;-78
2022/12/30 01:00:40;;;;;;;13.05;2.38;;;9.70;98.70;;;;;;5093669;28;20024;-78
2022/12/30 01:03:06;;;;;;;15.93;2.63;;;9.60;98.50;;;;;;5093028;28;20097;-78
2022/12/30 01:05:31;;;;;;;11.80;2.05;;;9.60;98.50;;;;;;5093472;28;20020;-79
2022/12/30 01:07:57;;;;;;;14.23;2.08;;;9.60;98.60;;;;;;5093148;28;20029;-79
2022/12/30 01:10:23;;;;;;;12.88;2.20;;;9.70;98.60;;;;;;5093069;28;20028;-79
2022/12/30 01:12:48;;;;;;;14.27;2.35;;;9.60;98.50;;;;;;5091533;28;20040;-78
2022/12/30 01:15:15;;;;;;;13.68;2.40;;;9.70;98.50;;;;;;5091900;28;20462;-78
2022/12/30 01:17:40;;;;;;;15.05;2.13;;;9.60;98.40;;;;;;5093356;28;20062;-79
2022/12/30 01:20:07;;;;;;;14.05;2.20;;;9.60;98.40;;;;;;5091800;28;20052;-78
2022/12/30 01:22:33;;;;;;;13.27;2.40;;;9.70;98.30;;;;;;5093182;28;20024;-78
2022/12/30 01:24:58;;;;;;;23.77;6.97;;;9.70;98.40;;;;;;5092436;28;20074;-79
2022/12/30 01:27:24;;;;;;;33.25;12.68;;;9.70;98.30;;;;;;5092777;28;20369;-77
2022/12/30 01:29:50;;;;;;;17.00;3.17;;;9.70;98.30;;;;;;5092076;28;20115;-78
2022/12/30 01:32:19;;;;;;;14.20;2.08;;;9.60;98.20;;;;;;5091443;28;20391;-79
2022/12/30 01:34:45;;;;;;;11.95;2.38;;;9.70;98.30;;;;;;5091514;28;20054;-77
2022/12/30 01:37:11;;;;;;;12.50;2.22;;;9.70;98.20;;;;;;5092422;28;20051;-77
2022/12/30 01:39:37;;;;;;;9.40;1.98;;;9.60;97.80;;;;;;5092562;28;20040;-77
2022/12/30 01:42:05;;;;;;;19.30;2.25;;;9.60;97.90;;;;;;5091347;28;20035;-77
2022/12/30 01:44:53;;;;;;;21.98;2.22;;;9.50;97.70;;;;;;5090511;28;20222;-78
2022/12/30 01:47:43;;;;;;;17.70;2.10;;;9.60;97.70;;;;;;5092267;28;20036;-75
2022/12/30 01:50:12;;;;;;;16.73;2.60;;;9.60;97.80;;;;;;5092108;28;20024;-79
2022/12/30 01:52:42;;;;;;;8.05;2.38;;;9.60;97.80;;;;;;5091040;28;20053;-77
2022/12/30 01:55:13;;;;;;;8.23;1.98;;;9.60;97.80;;;;;;5092193;28;20149;-78
2022/12/30 01:57:42;;;;;;;13.23;2.50;;;9.60;97.90;;;;;;5092021;28;20324;-78
2022/12/30 02:00:08;;;;;;;11.57;1.90;;;9.60;98.00;;;;;;5090896;28;20023;-79
2022/12/30 02:02:34;;;;;;;12.52;1.85;;;9.60;98.00;;;;;;5092793;28;20031;-78
2022/12/30 02:05:03;;;;;;;11.32;2.58;;;9.50;98.00;;;;;;5092325;28;20021;-76
2022/12/30 02:07:37;;;;;;;7.30;1.98;;;9.50;98.10;;;;;;5092205;28;20235;-77
2022/12/30 02:10:03;;;;;;;10.60;2.50;;;9.50;98.10;;;;;;5091785;28;20035;-76
2022/12/30 02:12:29;;;;;;;16.67;2.17;;;9.60;98.20;;;;;;5091804;28;20111;-76
2022/12/30 02:14:56;;;;;;;11.90;2.30;;;9.70;98.30;;;;;;5091452;28;20124;-77
2022/12/30 02:17:45;;;;;;;9.70;1.95;;;9.50;98.20;;;;;;5090682;28;20032;-78
2022/12/30 02:20:48;;;;;;;8.85;2.38;;;9.50;98.30;;;;;;5083238;28;20062;-77
2022/12/30 02:23:41;;;;;;;9.10;2.17;;;9.60;98.40;;;;;;5090578;28;20035;-77
2022/12/30 02:26:26;;;;;;;12.10;2.05;;;9.60;98.50;;;;;;5090498;28;20437;-79
2022/12/30 02:29:10;;;;;;;16.10;2.83;;;9.60;98.50;;;;;;5090642;28;20036;-78
2022/12/30 02:32:03;;;;;;;18.42;2.40;;;9.60;98.50;;;;;;5091728;28;20036;-77
2022/12/30 02:34:58;;;;;;;10.90;2.08;;;9.50;98.50;;;;;;5091590;28;20114;-78
2022/12/30 02:37:42;;;;;;;11.55;2.55;;;9.50;98.50;;;;;;5091411;28;20054;-79
2022/12/30 02:40:25;;;;;;;12.23;2.03;;;9.60;98.70;;;;;;5091462;28;20024;-77
2022/12/30 02:45:55;;;;;;;21.20;2.38;;;9.50;98.70;;;;;;5091393;28;20413;-78
2022/12/30 02:48:25;;;;;;;15.07;2.88;;;9.60;98.80;;;;;;5091182;28;20074;-77
2022/12/30 02:53:39;;;;;;;11.07;2.30;;;9.60;98.70;;;;;;5091363;28;20070;-78
2022/12/30 02:56:05;;;;;;;16.88;2.58;;;9.50;98.60;;;;;;5090746;28;20032;-77
2022/12/30 02:58:38;;;;;;;14.48;1.92;;;9.50;98.60;;;;;;5091033;28;20075;-78
2022/12/30 03:04:03;;;;;;;10.70;2.08;;;9.50;98.60;;;;;;5091225;28;20039;-77
2022/12/30 03:06:54;;;;;;;7.68;1.90;;;9.50;98.50;;;;;;5090963;28;20365;-78
2022/12/30 03:09:29;;;;;;;12.93;2.10;;;9.50;98.50;;;;;;5090906;28;20058;-78
2022/12/30 03:12:00;;;;;;;10.43;1.90;;;9.50;98.60;;;;;;5091133;28;20445;-76
2022/12/30 03:14:38;;;;;;;18.30;3.70;;;9.50;98.50;;;;;;5090849;28;20115;-79
2022/12/30 03:17:15;;;;;;;10.57;1.80;;;9.40;98.50;;;;;;5090983;28;20020;-78
2022/12/30 03:19:44;;;;;;;14.15;2.17;;;9.40;98.50;;;;;;5089675;28;20117;-78
2022/12/30 03:27:03;;;;;;;14.68;2.22;;;9.40;98.50;;;;;;5089703;28;20441;-77
2022/12/30 03:27:46;;;;;;;14.98;2.80;;;9.40;98.60;;;;;;5090838;28;20051;-78
2022/12/30 03:30:13;;;;;;;14.10;2.17;;;9.30;98.80;;;;;;5090827;28;20373;-79
2022/12/30 03:32:39;;;;;;;12.63;2.85;;;9.30;98.70;;;;;;5090296;28;20027;-77
2022/12/30 03:35:05;;;;;;;16.48;2.28;;;9.30;98.80;;;;;;5089789;28;20032;-77
2022/12/30 03:37:40;;;;;;;15.63;2.53;;;9.20;98.80;;;;;;5090367;28;20111;-78
2022/12/30 03:40:13;;;;;;;13.07;2.25;;;9.20;98.80;;;;;;5090855;28;20032;-78
2022/12/30 03:42:39;;;;;;;13.27;2.50;;;9.10;98.80;;;;;;5090479;28;20128;-77
2022/12/30 03:45:06;;;;;;;11.73;2.08;;;9.20;98.90;;;;;;5090493;28;20497;-79
2022/12/30 03:47:31;;;;;;;13.60;2.50;;;9.10;98.90;;;;;;5090911;28;20111;-78
2022/12/30 03:49:57;;;;;;;16.95;3.38;;;9.10;99.00;;;;;;5089500;28;20135;-76
2022/12/30 03:52:23;;;;;;;13.57;2.28;;;9.10;99.10;;;;;;5089329;28;20032;-77
2022/12/30 03:54:49;;;;;;;15.73;2.92;;;9.10;99.20;;;;;;5090533;28;20476;-78
2022/12/30 03:57:16;;;;;;;13.48;2.72;;;9.00;99.20;;;;;;5089513;28;20020;-77
2022/12/30 03:59:42;;;;;;;13.65;1.98;;;8.90;99.40;;;;;;5090904;28;20043;-78
2022/12/30 04:02:08;;;;;;;14.90;1.88;;;9.00;99.40;;;;;;5090612;28;20032;-78
2022/12/30 04:04:34;;;;;;;11.00;2.50;;;8.90;99.50;;;;;;5090488;28;20131;-77
2022/12/30 04:06:59;;;;;;;20.83;2.92;;;8.90;99.60;;;;;;5090643;28;20028;-78
2022/12/30 04:09:25;;;;;;;15.65;2.65;;;8.90;99.60;;;;;;5094154;28;20523;-77
2022/12/30 04:11:51;;;;;;;13.13;2.90;;;9.00;99.70;;;;;;5094331;28;20382;-78
2022/12/30 04:14:16;;;;;;;10.13;2.15;;;9.00;99.70;;;;;;5093049;28;20373;-77
2022/12/30 04:16:43;;;;;;;20.90;3.15;;;9.00;99.70;;;;;;5094441;28;20524;-77
2022/12/30 04:19:09;;;;;;;13.30;2.42;;;9.00;99.70;;;;;;5093943;28;20127;-77
2022/12/30 04:21:35;;;;;;;19.00;2.90;;;9.00;99.70;;;;;;5093945;28;20122;-77
2022/12/30 04:24:01;;;;;;;15.13;2.55;;;9.00;99.80;;;;;;5092844;28;20024;-77
2022/12/30 04:26:27;;;;;;;11.90;2.33;;;9.10;99.80;;;;;;5094371;28;20091;-77
2022/12/30 04:28:52;;;;;;;16.50;3.10;;;9.00;99.90;;;;;;5093782;28;20126;-78
2022/12/30 04:31:18;;;;;;;16.83;3.08;;;9.10;99.90;;;;;;5092935;28;20103;-78
2022/12/30 04:33:44;;;;;;;13.75;3.00;;;9.10;99.80;;;;;;5093857;28;20416;-78
2022/12/30 04:36:09;;;;;;;13.20;2.85;;;9.10;99.80;;;;;;5093804;28;20028;-78
2022/12/30 04:38:35;;;;;;;11.68;2.35;;;9.10;99.80;;;;;;5093039;28;20031;-77
2022/12/30 04:41:01;;;;;;;7.75;2.47;;;9.20;99.80;;;;;;5093373;28;20360;-77
2022/12/30 04:43:26;;;;;;;11.77;2.92;;;9.20;99.80;;;;;;5093573;28;20471;-78
2022/12/30 04:45:52;;;;;;;6.50;2.08;;;9.20;99.80;;;;;;5092475;28;20121;-78
2022/12/30 04:48:18;;;;;;;14.32;2.55;;;9.20;99.90;;;;;;5092549;28;20405;-78
2022/12/30 04:50:45;;;;;;;13.70;3.10;;;9.00;99.90;;;;;;5092906;28;20024;-77
2022/12/30 04:53:11;;;;;;;18.52;2.38;;;9.10;99.90;;;;;;5093696;28;20585;-77
2022/12/30 04:55:37;;;;;;;25.23;3.63;;;9.00;99.90;;;;;;5093557;28;20466;-75
2022/12/30 04:58:04;;;;;;;12.55;2.65;;;9.00;99.90;;;;;;5093270;28;20030;-79
2022/12/30 05:00:30;;;;;;;10.55;3.30;;;9.00;99.90;;;;;;5093234;28;20028;-77
2022/12/30 05:02:56;;;;;;;15.75;2.95;;;8.90;99.90;;;;;;5093740;28;20027;-78
2022/12/30 05:05:21;;;;;;;19.17;3.58;;;9.10;99.90;;;;;;5093288;28;20166;-78
2022/12/30 05:07:47;;;;;;;13.98;3.45;;;9.20;99.90;;;;;;5093101;28;20032;-78
2022/12/30 05:10:13;;;;;;;11.00;2.35;;;9.00;99.90;;;;;;5092933;28;20056;-77
2022/12/30 05:12:39;;;;;;;12.32;2.80;;;9.00;99.90;;;;;;5092724;28;20545;-78
2022/12/30 05:15:05;;;;;;;16.48;2.70;;;9.00;99.90;;;;;;5092928;28;20263;-78
2022/12/30 05:17:31;;;;;;;20.02;3.30;;;9.00;99.90;;;;;;5092836;28;20051;-79
2022/12/30 05:19:56;;;;;;;17.33;3.28;;;9.00;99.90;;;;;;5093100;28;20109;-80
2022/12/30 05:22:22;;;;;;;18.35;3.22;;;9.00;99.90;;;;;;5092975;28;20028;-79
2022/12/30 05:27:42;;;;;;;14.20;2.65;;;9.00;99.90;;;;;;5055080;28;20119;-78
2022/12/30 05:30:09;;;;;;;14.57;3.47;;;8.90;99.90;;;;;;5092705;28;20386;-78
2022/12/30 05:32:34;;;;;;;15.40;2.92;;;8.90;99.90;;;;;;5093151;28;20024;-78
2022/12/30 05:35:00;;;;;;;17.45;2.78;;;8.90;99.90;;;;;;5091612;28;20350;-78
2022/12/30 05:37:26;;;;;;;17.55;3.00;;;8.80;99.90;;;;;;5091434;28;20078;-78
2022/12/30 05:39:51;;;;;;;12.38;2.50;;;8.90;99.90;;;;;;5091641;28;20051;-79
2022/12/30 05:42:17;;;;;;;16.83;3.42;;;8.90;99.90;;;;;;5092345;28;20056;-78
2022/12/30 05:44:43;;;;;;;20.67;3.00;;;8.80;99.90;;;;;;5091892;28;20357;-77
2022/12/30 05:47:08;;;;;;;14.75;2.83;;;8.80;99.90;;;;;;5092271;28;20040;-78
2022/12/30 05:49:34;;;;;;;15.05;2.70;;;8.80;99.90;;;;;;5092300;28;20036;-78
2022/12/30 05:51:59;;;;;;;15.60;2.50;;;8.90;99.90;;;;;;5091195;28;20450;-77
2022/12/30 05:54:25;;;;;;;14.57;2.70;;;8.80;99.90;;;;;;5091127;28;20031;-78
2022/12/30 05:56:51;;;;;;;14.05;2.95;;;8.80;99.90;;;;;;5092583;28;20028;-78
2022/12/30 05:59:17;;;;;;;19.33;4.05;;;8.80;99.90;;;;;;5092275;28;20377;-77
2022/12/30 06:01:42;;;;;;;12.60;2.95;;;8.80;99.90;;;;;;5092242;28;20040;-76
2022/12/30 06:04:08;;;;;;;23.90;3.75;;;8.70;99.90;;;;;;5092124;28;20568;-77
2022/12/30 06:06:34;;;;;;;13.25;2.75;;;8.70;99.90;;;;;;5092024;28;20035;-77
2022/12/30 06:09:00;;;;;;;19.10;2.60;;;8.70;99.90;;;;;;5091783;28;20520;-76
2022/12/30 06:11:25;;;;;;;19.90;2.42;;;8.70;99.90;;;;;;5092172;28;20024;-77
2022/12/30 06:13:51;;;;;;;12.68;2.25;;;8.70;99.90;;;;;;5091650;28;20466;-77
2022/12/30 06:16:17;;;;;;;13.88;2.47;;;8.60;99.90;;;;;;5091764;28;20047;-77
2022/12/30 06:18:42;;;;;;;22.83;2.97;;;8.60;99.90;;;;;;5091754;28;20040;-76
2022/12/30 06:21:08;;;;;;;14.27;2.55;;;8.60;99.90;;;;;;5090507;28;20053;-77
2022/12/30 06:23:33;;;;;;;16.30;3.03;;;8.60;99.90;;;;;;5091938;28;20039;-78
2022/12/30 06:25:59;;;;;;;16.20;2.30;;;8.60;99.90;;;;;;5091361;28;20065;-77
2022/12/30 06:28:27;;;;;;;14.25;2.50;;;8.80;99.90;;;;;;5090213;28;20032;-78
2022/12/30 06:30:53;;;;;;;16.13;2.35;;;8.60;99.90;;;;;;5089646;28;20024;-77
2022/12/30 06:33:20;;;;;;;17.80;3.92;;;8.60;99.90;;;;;;5091352;28;20043;-77
2022/12/30 06:35:47;;;;;;;15.60;2.78;;;8.60;99.90;;;;;;5091785;28;20020;-78
2022/12/30 06:38:13;;;;;;;21.83;2.80;;;8.60;99.90;;;;;;5090948;28;20032;-79
2022/12/30 06:40:38;;;;;;;16.40;2.40;;;8.50;99.90;;;;;;5089892;28;20024;-78
2022/12/30 06:43:04;;;;;;;9.68;2.55;;;8.80;99.90;;;;;;5089874;28;20130;-77
2022/12/30 06:45:30;;;;;;;20.20;3.08;;;8.60;99.90;;;;;;5091044;28;20024;-78
2022/12/30 06:47:56;;;;;;;18.45;2.60;;;8.70;99.90;;;;;;5090711;28;20058;-78
2022/12/30 06:50:22;;;;;;;13.18;2.83;;;8.50;99.90;;;;;;5090864;28;20039;-78
2022/12/30 06:52:47;;;;;;;16.27;2.85;;;8.60;99.90;;;;;;5091018;28;20418;-80
2022/12/30 06:55:13;;;;;;;7.60;2.00;;;8.50;99.90;;;;;;5090971;28;20063;-79
2022/12/30 06:57:39;;;;;;;18.38;2.22;;;8.50;99.90;;;;;;5090849;28;20036;-78
2022/12/30 07:00:06;;;;;;;22.48;2.40;;;8.50;99.90;;;;;;5090815;28;20043;-78
2022/12/30 07:02:33;;;;;;;17.67;2.47;;;8.50;99.90;;;;;;5089772;28;20081;-77
2022/12/30 07:04:59;;;;;;;21.95;2.42;;;8.50;99.90;;;;;;5090895;28;20086;-78
2022/12/30 07:07:25;;;;;;;19.05;2.65;;;8.50;99.90;;;;;;5090768;28;20473;-78
2022/12/30 07:09:51;;;;;;;11.65;1.73;;;8.50;99.90;;;;;;5090691;28;20402;-77
2022/12/30 07:12:17;;;;;;;13.77;2.58;;;8.50;99.90;;;;;;5090695;28;20101;-78
2022/12/30 07:14:43;;;;;;;11.85;1.83;;;8.60;99.90;;;;;;5091324;28;20016;-78
2022/12/30 07:17:09;;;;;;;21.48;2.80;;;8.50;99.90;;;;;;5090472;28;20021;-78
2022/12/30 07:19:35;;;;;;;11.07;2.05;;;8.50;99.90;;;;;;5090357;28;20032;-78
2022/12/30 07:22:00;;;;;;;14.98;2.50;;;8.50;99.90;;;;;;5090486;28;20043;-79
2022/12/30 07:24:26;;;;;;;14.20;2.72;;;8.50;99.90;;;;;;5089589;28;20024;-78
2022/12/30 07:26:52;;;;;;;14.98;2.75;;;8.50;99.90;;;;;;5091479;28;20020;-78
2022/12/30 07:29:18;;;;;;;10.88;3.42;;;8.40;99.90;;;;;;5090450;28;20024;-78
2022/12/30 07:31:43;;;;;;;12.02;3.05;;;8.50;99.90;;;;;;5090506;28;20129;-77
2022/12/30 07:34:09;;;;;;;14.32;2.97;;;8.60;99.90;;;;;;5090556;28;20028;-78
2022/12/30 07:36:35;;;;;;;10.43;2.65;;;8.60;99.90;;;;;;5089353;28;20464;-78
2022/12/30 07:39:00;;;;;;;11.70;1.83;;;8.50;99.90;;;;;;5089195;28;20442;-78
2022/12/30 07:41:26;;;;;;;14.57;2.00;;;8.50;99.90;;;;;;5091795;28;20041;-78
2022/12/30 07:43:52;;;;;;;22.25;2.40;;;8.40;99.90;;;;;;5094522;28;20500;-77
2022/12/30 07:46:19;;;;;;;8.50;1.58;;;8.40;99.90;;;;;;5094777;28;20052;-78
2022/12/30 07:48:44;;;;;;;11.90;2.70;;;8.40;99.90;;;;;;5093968;28;20028;-79
2022/12/30 07:51:13;;;;;;;13.05;2.17;;;8.40;99.90;;;;;;5094507;28;20478;-78
2022/12/30 07:53:40;;;;;;;11.52;1.73;;;8.40;99.90;;;;;;5094697;28;20047;-79
2022/12/30 07:56:08;;;;;;;13.73;2.30;;;8.30;99.90;;;;;;5094306;28;20174;-79
2022/12/30 07:58:34;;;;;;;18.02;2.42;;;8.30;99.90;;;;;;5094202;28;20027;-79
2022/12/30 08:01:09;;;;;;;16.70;1.85;;;8.30;99.90;;;;;;5093941;28;20039;-78
2022/12/30 08:03:35;;;;;;;20.38;2.53;;;8.30;99.90;;;;;;5092982;28;20044;-78
2022/12/30 08:06:06;;;;;;;16.40;2.00;;;8.30;99.90;;;;;;5094042;28;20028;-79
2022/12/30 08:08:33;;;;;;;15.10;2.17;;;8.30;99.90;;;;;;5094309;28;20032;-78
2022/12/30 08:10:59;;;;;;;13.82;1.52;;;8.30;99.90;;;;;;5094241;28;20038;-78
2022/12/30 08:13:25;;;;;;;10.70;1.83;;;8.20;99.90;;;;;;5093813;28;20048;-78
2022/12/30 08:15:50;;;;;;;11.07;1.60;;;8.20;99.90;;;;;;5092992;28;20040;-78
2022/12/30 08:18:16;;;;;;;9.77;1.77;;;8.30;99.90;;;;;;5093584;28;20086;-79
2022/12/30 08:20:42;;;;;;;13.38;2.15;;;8.20;99.90;;;;;;5094295;28;20028;-77
2022/12/30 08:23:08;;;;;;;12.20;1.60;;;8.30;99.90;;;;;;5092565;28;20032;-78
2022/12/30 08:25:34;;;;;;;21.70;3.22;;;8.40;99.90;;;;;;5093447;28;20343;-77
2022/12/30 08:28:00;;;;;;;18.13;3.55;;;8.30;99.90;;;;;;5093459;28;20334;-78
2022/12/30 08:30:26;;;;;;;11.13;1.90;;;8.40;99.90;;;;;;5092469;28;20096;-78
2022/12/30 08:32:52;;;;;;;11.43;1.67;;;8.40;99.90;;;;;;5093802;28;20032;-78
2022/12/30 08:35:18;;;;;;;17.75;3.50;;;8.50;99.90;;;;;;5092528;28;20492;-78
2022/12/30 08:37:44;;;;;;;19.55;3.60;;;8.40;99.90;;;;;;5093525;28;20066;-77
2022/12/30 08:40:11;;;;;;;12.32;2.45;;;8.40;99.90;;;;;;5093298;28;20047;-78
2022/12/30 08:42:36;;;;;;;14.00;2.03;;;8.40;99.90;;;;;;5093283;28;20036;-78
2022/12/30 08:45:05;;;;;;;14.43;1.55;;;8.40;99.90;;;;;;5093308;28;20074;-78
2022/12/30 08:47:30;;;;;;;10.55;1.50;;;8.40;99.90;;;;;;5093885;28;20021;-78
2022/12/30 08:49:56;;;;;;;13.95;1.60;;;8.40;99.90;;;;;;5093388;28;20362;-78
2022/12/30 08:52:22;;;;;;;15.05;2.22;;;8.60;99.90;;;;;;5092362;28;20028;-78
2022/12/30 08:54:47;;;;;;;6.22;1.08;;;8.60;99.90;;;;;;5093212;28;20060;-77
2022/12/30 08:57:13;;;;;;;10.93;2.47;;;8.60;99.90;;;;;;5092887;28;20457;-78
2022/12/30 08:59:39;;;;;;;7.53;1.23;;;8.60;99.90;;;;;;5093441;28;20062;-77
2022/12/30 09:02:05;;;;;;;9.07;2.10;;;8.60;99.80;;;;;;5091968;28;20035;-78
2022/12/30 09:04:31;;;;;;;12.52;1.90;;;8.80;99.70;;;;;;5091634;28;20047;-78
2022/12/30 09:06:57;;;;;;;14.27;1.98;;;8.70;99.70;;;;;;5092770;28;20058;-78
2022/12/30 09:09:22;;;;;;;10.02;4.07;;;8.80;99.60;;;;;;5092769;28;20395;-78
2022/12/30 09:11:48;;;;;;;10.68;1.70;;;8.80;99.50;;;;;;5093337;28;20016;-76
2022/12/30 09:14:16;;;;;;;9.35;1.80;;;8.80;99.40;;;;;;5092615;28;20037;-77
2022/12/30 09:16:42;;;;;;;13.02;2.03;;;8.80;99.30;;;;;;5091149;28;20039;-76
2022/12/30 09:19:08;;;;;;;12.95;1.98;;;8.80;99.30;;;;;;5092589;28;20040;-77
2022/12/30 09:21:35;;;;;;;8.52;1.35;;;8.90;99.40;;;;;;5092498;28;20492;-79
2022/12/30 09:24:00;;;;;;;11.82;2.72;;;8.90;99.30;;;;;;5091336;28;20028;-78
2022/12/30 09:26:28;;;;;;;14.90;1.80;;;8.90;99.20;;;;;;5093224;28;20032;-77
2022/12/30 09:28:54;;;;;;;14.23;1.70;;;9.00;99.20;;;;;;5092571;28;20028;-76
2022/12/30 09:31:20;;;;;;;15.07;1.90;;;9.00;99.30;;;;;;5091485;28;20028;-78
2022/12/30 09:33:46;;;;;;;15.02;1.73;;;9.00;99.20;;;;;;5092350;28;20047;-77
2022/12/30 09:36:12;;;;;;;8.95;1.70;;;9.10;99.30;;;;;;5092518;28;20024;-76
2022/12/30 09:38:38;;;;;;;18.27;2.08;;;9.10;99.10;;;;;;5092324;28;20024;-78
2022/12/30 09:44:38;;;;;;;9.52;1.73;;;9.10;99.30;;;;;;5091910;28;20067;-78
2022/12/30 09:47:10;;;;;;;14.13;2.05;;;9.30;99.10;;;;;;5091965;28;20032;-77
2022/12/30 09:49:44;;;;;;;12.05;1.48;;;9.30;98.90;;;;;;5090852;28;20043;-76
2022/12/30 09:52:12;;;;;;;12.25;1.65;;;9.20;98.80;;;;;;5092067;28;20071;-78
2022/12/30 09:54:43;;;;;;;13.63;1.55;;;9.30;98.80;;;;;;5092347;28;20051;-78
2022/12/30 10:00:00;;;;;;;9.07;2.10;;;9.30;98.50;;;;;;5092079;28;20035;-77
2022/12/30 10:02:34;;;;;;;13.38;2.13;;;9.30;98.40;;;;;;5091195;28;20261;-77
2022/12/30 10:05:00;;;;;;;5.65;1.65;;;9.40;98.40;;;;;;5089531;28;20082;-76
2022/12/30 10:07:41;;;;;;;13.30;1.98;;;9.40;98.40;;;;;;5091475;28;20465;-79
2022/12/30 10:10:35;;;;;;;10.60;1.52;;;9.40;98.30;;;;;;5090551;28;20043;-77
2022/12/30 10:13:09;;;;;;;10.40;1.75;;;9.40;98.10;;;;;;5091524;28;20058;-79
2022/12/30 10:15:43;;;;;;;11.10;1.58;;;9.60;98.40;;;;;;5090360;28;20032;-79
2022/12/30 10:18:33;;;;;;;7.07;1.58;;;9.50;98.20;;;;;;5090343;28;20043;-78
2022/12/30 10:21:03;;;;;;;9.73;1.30;;;9.50;98.10;;;;;;5090288;28;20050;-76
2022/12/30 10:23:44;;;;;;;12.70;1.83;;;9.50;97.90;;;;;;5090815;28;20406;-79
2022/12/30 10:26:20;;;;;;;9.60;1.20;;;9.50;97.90;;;;;;5091785;28;20382;-77
2022/12/30 10:29:10;;;;;;;6.70;1.52;;;9.60;98.00;;;;;;5091260;28;20039;-77
2022/12/30 10:31:37;;;;;;;10.00;1.88;;;9.70;98.00;;;;;;5091107;28;20392;-77
2022/12/30 10:34:13;;;;;;;11.23;1.95;;;9.70;97.90;;;;;;5091111;28;20061;-79
2022/12/30 10:36:53;;;;;;;10.45;1.77;;;9.70;98.00;;;;;;5089850;28;20040;-79
2022/12/30 10:39:22;;;;;;;8.77;1.35;;;9.80;97.90;;;;;;5090935;28;20155;-77
2022/12/30 10:42:02;;;;;;;8.18;1.75;;;9.70;97.80;;;;;;5090372;28;20454;-78
2022/12/30 10:44:58;;;;;;;7.47;1.73;;;9.90;98.00;;;;;;5089577;28;20040;-79
2022/12/30 10:47:42;;;;;;;11.35;1.38;;;9.90;97.80;;;;;;5090222;28;20093;-78
2022/12/30 10:50:28;;;;;;;11.15;1.60;;;9.90;97.70;;;;;;5089789;28;20089;-78
2022/12/30 10:52:54;;;;;;;7.22;1.25;;;9.80;97.70;;;;;;5090575;28;20058;-78
2022/12/30 10:55:24;;;;;;;9.43;1.55;;;9.80;97.70;;;;;;5090790;28;20032;-79
2022/12/30 10:58:01;;;;;;;9.52;1.48;;;9.90;97.90;;;;;;5090629;28;20086;-79
2022/12/30 11:00:27;;;;;;;6.45;1.77;;;9.80;97.80;;;;;;5089536;28;20025;-79
2022/12/30 11:03:01;;;;;;;8.77;1.52;;;9.80;97.90;;;;;;5090286;28;20131;-79
2022/12/30 11:05:29;;;;;;;10.13;1.70;;;9.90;98.00;;;;;;5089508;28;20043;-79
2022/12/30 11:07:56;;;;;;;9.43;1.60;;;9.90;97.90;;;;;;5090748;28;20036;-79
2022/12/30 11:10:22;;;;;;;8.25;1.35;;;10.00;97.50;;;;;;5089353;28;20047;-78
2022/12/30 11:15:50;;;;;;;6.30;1.52;;;9.90;97.90;;;;;;5090290;28;20062;-77
2022/12/30 11:18:16;;;;;;;4.68;1.30;;;9.90;97.90;;;;;;5090343;28;20106;-78
2022/12/30 11:20:42;;;;;;;9.02;1.40;;;9.90;98.00;;;;;;5091004;28;20170;-80
2022/12/30 11:23:29;;;;;;;10.75;1.98;;;10.00;97.40;;;;;;5090283;28;20454;-78
2022/12/30 11:25:56;;;;;;;6.10;1.27;;;9.90;98.00;;;;;;5090465;28;20031;-77
2022/12/30 11:28:26;;;;;;;14.25;1.38;;;9.90;98.10;;;;;;5089529;28;20359;-78
2022/12/30 11:30:51;;;;;;;9.95;1.70;;;9.90;98.10;;;;;;5090162;28;20032;-77
2022/12/30 11:33:35;;;;;;;10.98;1.83;;;9.90;98.10;;;;;;5090152;28;20035;-80
2022/12/30 11:36:30;;;;;;;12.00;1.83;;;9.90;98.10;;;;;;5089914;28;20386;-78
2022/12/30 11:39:06;;;;;;;7.90;1.52;;;10.00;97.70;;;;;;5085531;28;20047;-77
2022/12/30 11:41:34;;;;;;;7.07;1.33;;;10.10;97.50;;;;;;5089342;28;20465;-78
2022/12/30 11:43:59;;;;;;;4.82;1.40;;;10.10;97.40;;;;;;5089061;28;20088;-77
2022/12/30 11:46:33;;;;;;;11.75;1.90;;;10.10;97.60;;;;;;5090064;28;20115;-78
2022/12/30 11:49:23;;;;;;;10.57;1.70;;;10.20;97.50;;;;;;5089925;28;20038;-77
2022/12/30 11:51:57;;;;;;;10.52;1.40;;;10.20;97.40;;;;;;5081363;28;20523;-76
2022/12/30 11:54:26;;;;;;;5.88;1.50;;;10.20;97.20;;;;;;5089017;28;20036;-78
2022/12/30 11:56:55;;;;;;;5.72;1.75;;;10.20;97.20;;;;;;5090291;28;20024;-79
2022/12/30 11:59:49;;;;;;;11.05;1.55;;;10.20;97.10;;;;;;5089964;28;20047;-77
2022/12/30 12:02:23;;;;;;;11.40;1.77;;;10.20;97.00;;;;;;5089218;28;20101;-79
2022/12/30 12:04:49;;;;;;;8.35;1.25;;;10.40;97.10;;;;;;5090035;28;20450;-79
2022/12/30 12:07:15;;;;;;;6.75;1.50;;;10.30;96.90;;;;;;5089809;28;20039;-79
2022/12/30 12:09:55;;;;;;;10.30;1.35;;;10.30;96.90;;;;;;5089836;28;20461;-77
2022/12/30 12:12:27;;;;;;;8.32;1.25;;;10.30;96.90;;;;;;5089401;28;20120;-76
2022/12/30 12:14:58;;;;;;;6.07;1.38;;;10.20;96.80;;;;;;5090317;28;20031;-77
2022/12/30 12:17:46;;;;;;;8.65;1.65;;;10.30;97.00;;;;;;5090360;28;20028;-77
2022/12/30 12:20:15;;;;;;;8.90;1.45;;;10.30;96.90;;;;;;5089668;28;20466;-77
2022/12/30 12:23:01;;;;;;;5.05;1.00;;;10.30;97.00;;;;;;5088701;28;20093;-77
2022/12/30 12:25:33;;;;;;;2.92;1.52;;;10.30;97.00;;;;;;5089523;28;20039;-77
2022/12/30 12:27:59;;;;;;;9.82;2.00;;;10.30;96.90;;;;;;5090925;28;20473;-79
2022/12/30 12:30:35;;;;;;;7.20;1.70;;;10.30;97.00;;;;;;5093112;28;20489;-78
2022/12/30 12:33:09;;;;;;;4.88;0.98;;;10.40;97.00;;;;;;5093256;28;20038;-78
2022/12/30 12:35:52;;;;;;;4.32;1.00;;;10.40;97.10;;;;;;5092726;28;20028;-77
2022/12/30 12:38:37;;;;;;;4.95;1.15;;;10.40;97.00;;;;;;5092508;28;20040;-77
2022/12/30 12:41:27;;;;;;;3.22;1.00;;;10.40;97.00;;;;;;5093485;28;20115;-77
2022/12/30 12:44:32;;;;;;;5.88;1.20;;;10.30;97.10;;;;;;5093141;28;20077;-77
2022/12/30 12:47:06;;;;;;;8.93;1.60;;;10.30;97.20;;;;;;5093023;28;20093;-78
2022/12/30 12:49:35;;;;;;;5.88;1.55;;;10.30;97.20;;;;;;5093088;28;20059;-76
2022/12/30 12:52:26;;;;;;;7.05;1.63;;;10.30;97.30;;;;;;5092684;28;20365;-78
2022/12/30 12:55:13;;;;;;;7.60;1.15;;;10.30;97.30;;;;;;5092646;28;20056;-75
2022/12/30 12:57:51;;;;;;;6.57;1.20;;;10.20;97.30;;;;;;5092862;28;20035;-79
2022/12/30 13:00:19;;;;;;;5.50;1.13;;;10.30;97.30;;;;;;5092978;28;20039;-77
2022/12/30 13:03:14;;;;;;;6.40;1.48;;;10.20;97.20;;;;;;5092138;28;20322;-77
2022/12/30 13:06:09;;;;;;;8.15;1.83;;;10.20;97.20;;;;;;5092674;28;20082;-76
2022/12/30 13:09:01;;;;;;;9.90;1.50;;;10.20;97.20;;;;;;5090487;28;20039;-78
2022/12/30 13:11:49;;;;;;;27.48;12.20;;;10.20;97.20;;;;;;5091861;28;20132;-76
2022/12/30 13:14:17;;;;;;;5.47;1.27;;;10.20;97.20;;;;;;5092905;28;20452;-76
2022/12/30 13:16:46;;;;;;;8.15;1.23;;;10.20;97.20;;;;;;5092656;28;20115;-77
2022/12/30 13:19:18;;;;;;;5.70;1.40;;;10.20;97.20;;;;;;5091196;28;20470;-78
2022/12/30 13:21:47;;;;;;;5.30;1.15;;;10.20;97.20;;;;;;5091141;28;20101;-79
2022/12/30 13:24:36;;;;;;;6.68;1.30;;;10.20;97.20;;;;;;5092268;28;20445;-77
2022/12/30 13:27:04;;;;;;;8.52;1.58;;;10.30;97.20;;;;;;5091239;28;20024;-77
2022/12/30 13:29:36;;;;;;;6.70;1.10;;;10.20;97.20;;;;;;5092630;28;20074;-76
2022/12/30 13:32:18;;;;;;;5.43;1.25;;;10.20;97.20;;;;;;5092138;28;20077;-77
2022/12/30 13:35:01;;;;;;;3.80;1.10;;;10.30;97.20;;;;;;5092261;28;20040;-78
2022/12/30 13:38:00;;;;;;;13.75;1.52;;;10.20;97.20;;;;;;5090752;28;20121;-77
2022/12/30 13:40:32;;;;;;;12.13;1.25;;;10.00;97.10;;;;;;5091877;28;20028;-76
2022/12/30 13:43:24;;;;;;;7.32;1.20;;;10.30;97.20;;;;;;5092402;28;20032;-76
2022/12/30 13:45:53;;;;;;;5.85;1.50;;;10.30;97.20;;;;;;5092163;28;20499;-77
2022/12/30 13:48:22;;;;;;;5.22;1.35;;;10.30;97.20;;;;;;5092093;28;20610;-77
2022/12/30 13:51:00;;;;;;;7.82;1.10;;;10.30;97.20;;;;;;5092376;28;20097;-77
2022/12/30 13:53:33;;;;;;;;;;;10.30;97.10;;;;;;5091382;28;20040;-77
2022/12/30 13:55:59;;;;;;;8.05;1.30;;;10.20;97.10;;;;;;5091731;28;19947;-77
2022/12/30 13:58:25;;;;;;;7.88;1.50;;;10.30;97.20;;;;;;5090680;28;20032;-77
2022/12/30 14:01:19;;;;;;;5.57;1.33;;;10.30;97.20;;;;;;5091934;28;20028;-77